sensor_id;sensor_type;location;lat;lon;timestamp;P1;durP1;ratioP1;P2;durP2;ratioP2
37299;SDS011;23184;51.902;12.836;2023-05-07T00:00:04;22.48;;;13.43;;
37299;SDS011;23184;51.902;12.836;2023-05-07T00:02:33;20.88;;;13.77;;
37299;SDS011;23184;51.902;12.836;2023-05-07T00:04:58;22.75;;;14.15;;
37299;SDS011;23184;51.902;12.836;2023-05-07T00:07:24;26.33;;;15.18;;
37299;SDS011;23184;51.902;12.836;2023-05-07T00:09:49;22.65;;;14.15;;
37299;SDS011;23184;51.902;12.836;2023-05-07T00:12:15;22.95;;;14.13;;
37299;SDS011;23184;51.902;12.836;2023-05-07T00:14:41;22.58;;;14.90;;
37299;SDS011;23184;51.902;12.836;2023-05-07T00:17:06;26.10;;;14.50;;
37299;SDS011;23184;51.902;12.836;2023-05-07T00:19:32;23.77;;;15.25;;
37299;SDS011;23184;51.902;12.836;2023-05-07T00:21:57;26.20;;;15.52;;
37299;SDS011;23184;51.902;12.836;2023-05-07T00:24:23;23.70;;;13.80;;
37299;SDS011;23184;51.902;12.836;2023-05-07T00:26:49;27.33;;;14.60;;
37299;SDS011;23184;51.902;12.836;2023-05-07T00:29:14;24.38;;;16.17;;
37299;SDS011;23184;51.902;12.836;2023-05-07T00:31:40;23.95;;;15.25;;
37299;SDS011;23184;51.902;12.836;2023-05-07T00:34:05;26.85;;;15.63;;
37299;SDS011;23184;51.902;12.836;2023-05-07T00:36:31;24.27;;;15.05;;
37299;SDS011;23184;51.902;12.836;2023-05-07T00:38:57;24.45;;;14.40;;
37299;SDS011;23184;51.902;12.836;2023-05-07T00:41:25;25.27;;;16.13;;
37299;SDS011;23184;51.902;12.836;2023-05-07T00:43:51;23.20;;;15.02;;
37299;SDS011;23184;51.902;12.836;2023-05-07T00:46:17;23.25;;;15.00;;
37299;SDS011;23184;51.902;12.836;2023-05-07T00:48:44;24.80;;;15.23;;
37299;SDS011;23184;51.902;12.836;2023-05-07T00:51:10;22.27;;;14.75;;
37299;SDS011;23184;51.902;12.836;2023-05-07T00:53:36;20.27;;;14.52;;
37299;SDS011;23184;51.902;12.836;2023-05-07T00:56:02;20.92;;;13.90;;
37299;SDS011;23184;51.902;12.836;2023-05-07T00:58:28;20.33;;;14.05;;
37299;SDS011;23184;51.902;12.836;2023-05-07T01:00:55;21.27;;;13.20;;
37299;SDS011;23184;51.902;12.836;2023-05-07T01:03:20;19.95;;;12.98;;
37299;SDS011;23184;51.902;12.836;2023-05-07T01:05:46;19.45;;;13.10;;
37299;SDS011;23184;51.902;12.836;2023-05-07T01:08:13;17.35;;;12.50;;
37299;SDS011;23184;51.902;12.836;2023-05-07T01:10:40;18.35;;;12.15;;
37299;SDS011;23184;51.902;12.836;2023-05-07T01:13:08;16.73;;;11.07;;
37299;SDS011;23184;51.902;12.836;2023-05-07T01:15:37;15.23;;;11.75;;
37299;SDS011;23184;51.902;12.836;2023-05-07T01:18:03;16.55;;;11.20;;
37299;SDS011;23184;51.902;12.836;2023-05-07T01:20:29;18.15;;;10.48;;
37299;SDS011;23184;51.902;12.836;2023-05-07T01:22:55;18.58;;;10.63;;
37299;SDS011;23184;51.902;12.836;2023-05-07T01:25:22;14.80;;;10.38;;
37299;SDS011;23184;51.902;12.836;2023-05-07T01:27:48;15.40;;;10.48;;
37299;SDS011;23184;51.902;12.836;2023-05-07T01:30:13;15.82;;;9.85;;
37299;SDS011;23184;51.902;12.836;2023-05-07T01:32:52;15.73;;;9.77;;
37299;SDS011;23184;51.902;12.836;2023-05-07T01:35:26;13.10;;;9.45;;
37299;SDS011;23184;51.902;12.836;2023-05-07T01:37:54;12.48;;;8.77;;
37299;SDS011;23184;51.902;12.836;2023-05-07T01:40:20;15.52;;;10.70;;
37299;SDS011;23184;51.902;12.836;2023-05-07T01:42:46;15.07;;;10.15;;
37299;SDS011;23184;51.902;12.836;2023-05-07T01:45:13;15.93;;;10.43;;
37299;SDS011;23184;51.902;12.836;2023-05-07T01:47:38;18.15;;;11.35;;
37299;SDS011;23184;51.902;12.836;2023-05-07T01:50:07;15.52;;;10.30;;
37299;SDS011;23184;51.902;12.836;2023-05-07T01:52:34;15.32;;;10.50;;
37299;SDS011;23184;51.902;12.836;2023-05-07T01:54:59;16.38;;;10.18;;
37299;SDS011;23184;51.902;12.836;2023-05-07T01:57:25;14.70;;;9.75;;
37299;SDS011;23184;51.902;12.836;2023-05-07T01:59:50;15.48;;;10.00;;
37299;SDS011;23184;51.902;12.836;2023-05-07T02:02:16;16.92;;;10.77;;
37299;SDS011;23184;51.902;12.836;2023-05-07T02:04:41;16.15;;;10.15;;
37299;SDS011;23184;51.902;12.836;2023-05-07T02:07:07;18.15;;;10.38;;
37299;SDS011;23184;51.902;12.836;2023-05-07T02:09:32;15.93;;;10.23;;
37299;SDS011;23184;51.902;12.836;2023-05-07T02:11:58;14.85;;;10.60;;
37299;SDS011;23184;51.902;12.836;2023-05-07T02:14:23;13.93;;;9.85;;
37299;SDS011;23184;51.902;12.836;2023-05-07T02:16:48;17.67;;;10.65;;
37299;SDS011;23184;51.902;12.836;2023-05-07T02:19:14;13.73;;;10.02;;
37299;SDS011;23184;51.902;12.836;2023-05-07T02:21:40;12.57;;;9.23;;
37299;SDS011;23184;51.902;12.836;2023-05-07T02:24:05;12.70;;;8.63;;
37299;SDS011;23184;51.902;12.836;2023-05-07T02:26:31;15.40;;;9.52;;
37299;SDS011;23184;51.902;12.836;2023-05-07T02:28:56;14.77;;;8.98;;
37299;SDS011;23184;51.902;12.836;2023-05-07T02:31:22;12.00;;;8.82;;
37299;SDS011;23184;51.902;12.836;2023-05-07T02:33:47;11.85;;;7.85;;
37299;SDS011;23184;51.902;12.836;2023-05-07T02:36:13;9.38;;;6.82;;
37299;SDS011;23184;51.902;12.836;2023-05-07T02:38:38;10.48;;;7.10;;
37299;SDS011;23184;51.902;12.836;2023-05-07T02:41:04;10.43;;;7.53;;
37299;SDS011;23184;51.902;12.836;2023-05-07T02:43:29;10.40;;;7.57;;
37299;SDS011;23184;51.902;12.836;2023-05-07T02:46:00;11.45;;;7.78;;
37299;SDS011;23184;51.902;12.836;2023-05-07T02:48:29;12.75;;;7.80;;
37299;SDS011;23184;51.902;12.836;2023-05-07T02:50:54;11.05;;;7.85;;
37299;SDS011;23184;51.902;12.836;2023-05-07T02:53:20;11.15;;;7.57;;
37299;SDS011;23184;51.902;12.836;2023-05-07T02:55:45;10.45;;;7.38;;
37299;SDS011;23184;51.902;12.836;2023-05-07T02:58:11;9.45;;;7.40;;
37299;SDS011;23184;51.902;12.836;2023-05-07T03:00:36;10.93;;;7.57;;
37299;SDS011;23184;51.902;12.836;2023-05-07T03:03:02;11.07;;;6.95;;
37299;SDS011;23184;51.902;12.836;2023-05-07T03:05:27;11.10;;;7.22;;
37299;SDS011;23184;51.902;12.836;2023-05-07T03:07:53;9.77;;;6.75;;
37299;SDS011;23184;51.902;12.836;2023-05-07T03:10:18;7.95;;;6.18;;
37299;SDS011;23184;51.902;12.836;2023-05-07T03:12:44;7.78;;;6.15;;
37299;SDS011;23184;51.902;12.836;2023-05-07T03:15:10;9.27;;;6.75;;
37299;SDS011;23184;51.902;12.836;2023-05-07T03:17:37;9.32;;;5.95;;
37299;SDS011;23184;51.902;12.836;2023-05-07T03:20:03;9.95;;;6.50;;
37299;SDS011;23184;51.902;12.836;2023-05-07T03:22:29;12.38;;;6.68;;
37299;SDS011;23184;51.902;12.836;2023-05-07T03:24:54;9.10;;;6.57;;
37299;SDS011;23184;51.902;12.836;2023-05-07T03:27:20;8.60;;;6.72;;
37299;SDS011;23184;51.902;12.836;2023-05-07T03:29:45;11.40;;;7.15;;
37299;SDS011;23184;51.902;12.836;2023-05-07T03:32:11;10.25;;;6.97;;
37299;SDS011;23184;51.902;12.836;2023-05-07T03:34:36;9.02;;;6.70;;
37299;SDS011;23184;51.902;12.836;2023-05-07T03:37:02;10.27;;;6.85;;
37299;SDS011;23184;51.902;12.836;2023-05-07T03:39:27;9.80;;;7.10;;
37299;SDS011;23184;51.902;12.836;2023-05-07T03:41:53;10.15;;;7.15;;
37299;SDS011;23184;51.902;12.836;2023-05-07T03:44:18;12.52;;;8.00;;
37299;SDS011;23184;51.902;12.836;2023-05-07T03:46:43;11.60;;;8.15;;
37299;SDS011;23184;51.902;12.836;2023-05-07T03:49:09;11.30;;;8.32;;
37299;SDS011;23184;51.902;12.836;2023-05-07T03:51:34;12.13;;;8.00;;
37299;SDS011;23184;51.902;12.836;2023-05-07T03:54:00;11.35;;;8.07;;
37299;SDS011;23184;51.902;12.836;2023-05-07T03:56:26;8.35;;;6.47;;
37299;SDS011;23184;51.902;12.836;2023-05-07T03:58:52;11.23;;;6.32;;
37299;SDS011;23184;51.902;12.836;2023-05-07T04:01:18;12.25;;;6.50;;
37299;SDS011;23184;51.902;12.836;2023-05-07T04:03:43;8.30;;;6.43;;
37299;SDS011;23184;51.902;12.836;2023-05-07T04:06:09;10.10;;;7.60;;
37299;SDS011;23184;51.902;12.836;2023-05-07T04:08:35;11.48;;;7.68;;
37299;SDS011;23184;51.902;12.836;2023-05-07T04:11:01;9.23;;;6.85;;
37299;SDS011;23184;51.902;12.836;2023-05-07T04:13:26;11.45;;;7.38;;
37299;SDS011;23184;51.902;12.836;2023-05-07T04:15:52;9.90;;;7.20;;
37299;SDS011;23184;51.902;12.836;2023-05-07T04:18:18;11.48;;;7.07;;
37299;SDS011;23184;51.902;12.836;2023-05-07T04:20:44;10.52;;;7.25;;
37299;SDS011;23184;51.902;12.836;2023-05-07T04:23:10;8.85;;;5.88;;
37299;SDS011;23184;51.902;12.836;2023-05-07T04:25:35;10.05;;;5.78;;
37299;SDS011;23184;51.902;12.836;2023-05-07T04:28:01;8.48;;;6.40;;
37299;SDS011;23184;51.902;12.836;2023-05-07T04:30:27;8.57;;;6.35;;
37299;SDS011;23184;51.902;12.836;2023-05-07T04:32:52;8.07;;;5.88;;
37299;SDS011;23184;51.902;12.836;2023-05-07T04:35:18;9.27;;;6.72;;
37299;SDS011;23184;51.902;12.836;2023-05-07T04:37:43;8.60;;;6.57;;
37299;SDS011;23184;51.902;12.836;2023-05-07T04:40:09;10.15;;;6.32;;
37299;SDS011;23184;51.902;12.836;2023-05-07T04:42:35;8.82;;;5.85;;
37299;SDS011;23184;51.902;12.836;2023-05-07T04:45:01;12.00;;;6.57;;
37299;SDS011;23184;51.902;12.836;2023-05-07T04:47:26;8.52;;;5.55;;
37299;SDS011;23184;51.902;12.836;2023-05-07T04:49:52;9.63;;;6.63;;
37299;SDS011;23184;51.902;12.836;2023-05-07T04:52:17;10.02;;;6.07;;
37299;SDS011;23184;51.902;12.836;2023-05-07T04:54:43;12.27;;;6.85;;
37299;SDS011;23184;51.902;12.836;2023-05-07T04:57:08;8.38;;;6.00;;
37299;SDS011;23184;51.902;12.836;2023-05-07T04:59:34;10.20;;;5.57;;
37299;SDS011;23184;51.902;12.836;2023-05-07T05:01:59;10.38;;;6.43;;
37299;SDS011;23184;51.902;12.836;2023-05-07T05:04:26;9.05;;;5.97;;
37299;SDS011;23184;51.902;12.836;2023-05-07T05:06:51;9.02;;;6.00;;
37299;SDS011;23184;51.902;12.836;2023-05-07T05:09:17;8.40;;;6.30;;
37299;SDS011;23184;51.902;12.836;2023-05-07T05:11:42;8.93;;;5.72;;
37299;SDS011;23184;51.902;12.836;2023-05-07T05:14:08;8.55;;;5.45;;
37299;SDS011;23184;51.902;12.836;2023-05-07T05:16:34;7.32;;;5.03;;
37299;SDS011;23184;51.902;12.836;2023-05-07T05:18:59;8.27;;;5.82;;
37299;SDS011;23184;51.902;12.836;2023-05-07T05:21:26;10.20;;;6.03;;
37299;SDS011;23184;51.902;12.836;2023-05-07T05:23:51;9.88;;;6.18;;
37299;SDS011;23184;51.902;12.836;2023-05-07T05:26:17;11.38;;;6.45;;
37299;SDS011;23184;51.902;12.836;2023-05-07T05:28:42;9.27;;;7.05;;
37299;SDS011;23184;51.902;12.836;2023-05-07T05:31:08;12.57;;;7.25;;
37299;SDS011;23184;51.902;12.836;2023-05-07T05:33:33;10.02;;;6.80;;
37299;SDS011;23184;51.902;12.836;2023-05-07T05:35:59;11.50;;;6.55;;
37299;SDS011;23184;51.902;12.836;2023-05-07T05:38:24;10.18;;;7.30;;
37299;SDS011;23184;51.902;12.836;2023-05-07T05:40:50;11.77;;;7.88;;
37299;SDS011;23184;51.902;12.836;2023-05-07T05:43:16;12.02;;;8.18;;
37299;SDS011;23184;51.902;12.836;2023-05-07T05:45:41;13.00;;;8.25;;
37299;SDS011;23184;51.902;12.836;2023-05-07T05:48:07;13.07;;;8.77;;
37299;SDS011;23184;51.902;12.836;2023-05-07T05:50:33;15.48;;;9.57;;
37299;SDS011;23184;51.902;12.836;2023-05-07T05:53:00;13.65;;;9.45;;
37299;SDS011;23184;51.902;12.836;2023-05-07T05:55:26;12.48;;;8.63;;
37299;SDS011;23184;51.902;12.836;2023-05-07T05:57:51;14.73;;;9.10;;
37299;SDS011;23184;51.902;12.836;2023-05-07T06:00:17;17.25;;;9.85;;
37299;SDS011;23184;51.902;12.836;2023-05-07T06:02:43;14.07;;;9.35;;
37299;SDS011;23184;51.902;12.836;2023-05-07T06:05:09;15.63;;;9.32;;
37299;SDS011;23184;51.902;12.836;2023-05-07T06:07:34;14.90;;;9.60;;
37299;SDS011;23184;51.902;12.836;2023-05-07T06:10:00;14.70;;;8.73;;
37299;SDS011;23184;51.902;12.836;2023-05-07T06:12:26;16.13;;;9.75;;
37299;SDS011;23184;51.902;12.836;2023-05-07T06:14:51;16.15;;;9.50;;
37299;SDS011;23184;51.902;12.836;2023-05-07T06:17:17;13.05;;;9.20;;
37299;SDS011;23184;51.902;12.836;2023-05-07T06:19:43;13.40;;;9.45;;
37299;SDS011;23184;51.902;12.836;2023-05-07T06:22:08;15.65;;;10.32;;
37299;SDS011;23184;51.902;12.836;2023-05-07T06:24:34;18.48;;;10.52;;
37299;SDS011;23184;51.902;12.836;2023-05-07T06:27:00;16.30;;;10.80;;
37299;SDS011;23184;51.902;12.836;2023-05-07T06:29:25;15.88;;;10.00;;
37299;SDS011;23184;51.902;12.836;2023-05-07T06:31:52;15.20;;;10.00;;
37299;SDS011;23184;51.902;12.836;2023-05-07T06:34:18;16.38;;;11.18;;
37299;SDS011;23184;51.902;12.836;2023-05-07T06:36:43;14.30;;;9.73;;
37299;SDS011;23184;51.902;12.836;2023-05-07T06:39:09;14.63;;;10.77;;
37299;SDS011;23184;51.902;12.836;2023-05-07T06:41:34;14.18;;;9.75;;
37299;SDS011;23184;51.902;12.836;2023-05-07T06:44:01;16.48;;;9.75;;
37299;SDS011;23184;51.902;12.836;2023-05-07T06:46:27;14.18;;;9.40;;
37299;SDS011;23184;51.902;12.836;2023-05-07T06:48:53;14.20;;;9.77;;
37299;SDS011;23184;51.902;12.836;2023-05-07T06:51:18;13.57;;;8.88;;
37299;SDS011;23184;51.902;12.836;2023-05-07T06:53:44;15.52;;;9.73;;
37299;SDS011;23184;51.902;12.836;2023-05-07T06:56:09;14.13;;;9.10;;
37299;SDS011;23184;51.902;12.836;2023-05-07T06:58:35;13.07;;;9.25;;
37299;SDS011;23184;51.902;12.836;2023-05-07T07:01:01;13.90;;;8.50;;
37299;SDS011;23184;51.902;12.836;2023-05-07T07:03:26;15.25;;;8.70;;
37299;SDS011;23184;51.902;12.836;2023-05-07T07:05:52;12.63;;;8.15;;
37299;SDS011;23184;51.902;12.836;2023-05-07T07:08:18;13.18;;;7.68;;
37299;SDS011;23184;51.902;12.836;2023-05-07T07:10:46;12.68;;;8.68;;
37299;SDS011;23184;51.902;12.836;2023-05-07T07:13:11;10.93;;;7.72;;
37299;SDS011;23184;51.902;12.836;2023-05-07T07:15:37;12.98;;;8.35;;
37299;SDS011;23184;51.902;12.836;2023-05-07T07:18:02;11.35;;;8.13;;
37299;SDS011;23184;51.902;12.836;2023-05-07T07:20:28;10.77;;;7.80;;
37299;SDS011;23184;51.902;12.836;2023-05-07T07:22:53;9.63;;;7.30;;
37299;SDS011;23184;51.902;12.836;2023-05-07T07:25:19;11.07;;;8.15;;
37299;SDS011;23184;51.902;12.836;2023-05-07T07:27:44;11.70;;;7.93;;
37299;SDS011;23184;51.902;12.836;2023-05-07T07:30:10;11.57;;;7.10;;
37299;SDS011;23184;51.902;12.836;2023-05-07T07:32:37;11.02;;;7.72;;
37299;SDS011;23184;51.902;12.836;2023-05-07T07:35:02;10.70;;;7.57;;
37299;SDS011;23184;51.902;12.836;2023-05-07T07:37:28;12.00;;;8.40;;
37299;SDS011;23184;51.902;12.836;2023-05-07T07:39:54;10.52;;;7.72;;
37299;SDS011;23184;51.902;12.836;2023-05-07T07:42:20;13.77;;;8.48;;
37299;SDS011;23184;51.902;12.836;2023-05-07T07:44:45;12.32;;;8.75;;
37299;SDS011;23184;51.902;12.836;2023-05-07T07:47:11;12.50;;;8.20;;
37299;SDS011;23184;51.902;12.836;2023-05-07T07:49:36;13.82;;;8.85;;
37299;SDS011;23184;51.902;12.836;2023-05-07T07:52:02;12.15;;;8.20;;
37299;SDS011;23184;51.902;12.836;2023-05-07T07:54:27;13.23;;;9.27;;
37299;SDS011;23184;51.902;12.836;2023-05-07T07:56:54;13.27;;;9.05;;
37299;SDS011;23184;51.902;12.836;2023-05-07T07:59:19;13.88;;;9.18;;
37299;SDS011;23184;51.902;12.836;2023-05-07T08:01:45;13.40;;;9.20;;
37299;SDS011;23184;51.902;12.836;2023-05-07T08:04:10;14.57;;;9.93;;
37299;SDS011;23184;51.902;12.836;2023-05-07T08:06:36;13.13;;;8.73;;
37299;SDS011;23184;51.902;12.836;2023-05-07T08:09:02;15.13;;;9.00;;
37299;SDS011;23184;51.902;12.836;2023-05-07T08:11:28;15.07;;;9.27;;
37299;SDS011;23184;51.902;12.836;2023-05-07T08:13:53;14.15;;;9.02;;
37299;SDS011;23184;51.902;12.836;2023-05-07T08:16:19;13.30;;;8.88;;
37299;SDS011;23184;51.902;12.836;2023-05-07T08:18:45;13.48;;;9.02;;
37299;SDS011;23184;51.902;12.836;2023-05-07T08:21:10;13.13;;;8.82;;
37299;SDS011;23184;51.902;12.836;2023-05-07T08:23:36;14.18;;;8.98;;
37299;SDS011;23184;51.902;12.836;2023-05-07T08:26:01;13.20;;;8.80;;
37299;SDS011;23184;51.902;12.836;2023-05-07T08:28:27;13.20;;;8.98;;
37299;SDS011;23184;51.902;12.836;2023-05-07T08:30:53;15.07;;;9.10;;
37299;SDS011;23184;51.902;12.836;2023-05-07T08:33:18;12.73;;;8.85;;
37299;SDS011;23184;51.902;12.836;2023-05-07T08:35:44;15.23;;;9.55;;
37299;SDS011;23184;51.902;12.836;2023-05-07T08:38:09;12.82;;;9.00;;
37299;SDS011;23184;51.902;12.836;2023-05-07T08:40:36;15.00;;;9.07;;
37299;SDS011;23184;51.902;12.836;2023-05-07T08:43:05;12.73;;;8.27;;
37299;SDS011;23184;51.902;12.836;2023-05-07T08:45:31;12.70;;;8.85;;
37299;SDS011;23184;51.902;12.836;2023-05-07T08:47:58;9.90;;;7.15;;
37299;SDS011;23184;51.902;12.836;2023-05-07T08:50:26;10.88;;;7.00;;
37299;SDS011;23184;51.902;12.836;2023-05-07T08:52:52;8.75;;;6.43;;
37299;SDS011;23184;51.902;12.836;2023-05-07T08:55:18;11.20;;;7.35;;
37299;SDS011;23184;51.902;12.836;2023-05-07T08:57:44;8.95;;;6.57;;
37299;SDS011;23184;51.902;12.836;2023-05-07T09:00:09;8.23;;;6.45;;
37299;SDS011;23184;51.902;12.836;2023-05-07T09:02:35;11.68;;;6.03;;
37299;SDS011;23184;51.902;12.836;2023-05-07T09:05:01;9.70;;;5.80;;
37299;SDS011;23184;51.902;12.836;2023-05-07T09:07:27;10.70;;;6.55;;
37299;SDS011;23184;51.902;12.836;2023-05-07T09:09:53;10.68;;;7.13;;
37299;SDS011;23184;51.902;12.836;2023-05-07T09:12:20;8.18;;;6.30;;
37299;SDS011;23184;51.902;12.836;2023-05-07T09:14:46;11.13;;;6.60;;
37299;SDS011;23184;51.902;12.836;2023-05-07T09:17:11;13.07;;;7.03;;
37299;SDS011;23184;51.902;12.836;2023-05-07T09:19:37;8.52;;;6.32;;
37299;SDS011;23184;51.902;12.836;2023-05-07T09:22:03;9.57;;;6.07;;
37299;SDS011;23184;51.902;12.836;2023-05-07T09:24:31;9.45;;;6.93;;
37299;SDS011;23184;51.902;12.836;2023-05-07T09:27:00;10.82;;;6.75;;
37299;SDS011;23184;51.902;12.836;2023-05-07T09:29:27;11.57;;;6.68;;
37299;SDS011;23184;51.902;12.836;2023-05-07T09:32:00;7.30;;;6.05;;
37299;SDS011;23184;51.902;12.836;2023-05-07T09:34:27;9.20;;;5.82;;
37299;SDS011;23184;51.902;12.836;2023-05-07T09:36:54;7.32;;;5.40;;
37299;SDS011;23184;51.902;12.836;2023-05-07T09:39:21;7.22;;;5.40;;
37299;SDS011;23184;51.902;12.836;2023-05-07T09:41:48;7.10;;;5.60;;
37299;SDS011;23184;51.902;12.836;2023-05-07T09:44:19;10.20;;;5.85;;
37299;SDS011;23184;51.902;12.836;2023-05-07T09:46:45;7.53;;;6.18;;
37299;SDS011;23184;51.902;12.836;2023-05-07T09:49:21;8.43;;;6.10;;
37299;SDS011;23184;51.902;12.836;2023-05-07T09:51:48;8.70;;;5.70;;
37299;SDS011;23184;51.902;12.836;2023-05-07T09:54:15;9.80;;;6.82;;
37299;SDS011;23184;51.902;12.836;2023-05-07T09:56:42;7.53;;;5.60;;
37299;SDS011;23184;51.902;12.836;2023-05-07T09:59:10;7.45;;;5.82;;
37299;SDS011;23184;51.902;12.836;2023-05-07T10:01:44;8.10;;;5.45;;
37299;SDS011;23184;51.902;12.836;2023-05-07T10:04:10;7.75;;;5.70;;
37299;SDS011;23184;51.902;12.836;2023-05-07T10:06:36;7.50;;;5.30;;
37299;SDS011;23184;51.902;12.836;2023-05-07T10:09:02;7.72;;;5.80;;
37299;SDS011;23184;51.902;12.836;2023-05-07T10:11:30;8.73;;;6.15;;
37299;SDS011;23184;51.902;12.836;2023-05-07T10:14:00;9.88;;;6.60;;
37299;SDS011;23184;51.902;12.836;2023-05-07T10:16:33;8.45;;;6.10;;
37299;SDS011;23184;51.902;12.836;2023-05-07T10:19:03;10.52;;;6.88;;
37299;SDS011;23184;51.902;12.836;2023-05-07T10:21:30;8.75;;;6.22;;
37299;SDS011;23184;51.902;12.836;2023-05-07T10:24:00;8.30;;;6.32;;
37299;SDS011;23184;51.902;12.836;2023-05-07T10:26:31;9.77;;;6.30;;
37299;SDS011;23184;51.902;12.836;2023-05-07T10:28:59;8.68;;;6.40;;
37299;SDS011;23184;51.902;12.836;2023-05-07T10:34:09;9.27;;;6.07;;
37299;SDS011;23184;51.902;12.836;2023-05-07T10:36:37;9.32;;;6.47;;
37299;SDS011;23184;51.902;12.836;2023-05-07T10:39:04;11.23;;;6.55;;
37299;SDS011;23184;51.902;12.836;2023-05-07T10:41:31;10.70;;;6.90;;
37299;SDS011;23184;51.902;12.836;2023-05-07T10:43:56;10.02;;;6.22;;
37299;SDS011;23184;51.902;12.836;2023-05-07T10:46:22;8.90;;;6.10;;
37299;SDS011;23184;51.902;12.836;2023-05-07T10:51:26;11.00;;;6.40;;
37299;SDS011;23184;51.902;12.836;2023-05-07T10:56:42;12.00;;;5.72;;
37299;SDS011;23184;51.902;12.836;2023-05-07T11:02:04;11.57;;;5.07;;
37299;SDS011;23184;51.902;12.836;2023-05-07T11:04:31;7.05;;;4.28;;
37299;SDS011;23184;51.902;12.836;2023-05-07T11:12:46;7.88;;;4.82;;
37299;SDS011;23184;51.902;12.836;2023-05-07T11:15:12;6.45;;;4.18;;
37299;SDS011;23184;51.902;12.836;2023-05-07T11:17:56;5.82;;;3.65;;
37299;SDS011;23184;51.902;12.836;2023-05-07T11:26:08;5.57;;;3.72;;
37299;SDS011;23184;51.902;12.836;2023-05-07T11:28:38;6.28;;;3.90;;
37299;SDS011;23184;51.902;12.836;2023-05-07T11:31:05;7.32;;;3.60;;
37299;SDS011;23184;51.902;12.836;2023-05-07T11:33:31;6.82;;;3.92;;
37299;SDS011;23184;51.902;12.836;2023-05-07T11:35:58;5.50;;;3.60;;
37299;SDS011;23184;51.902;12.836;2023-05-07T11:38:24;5.20;;;3.60;;
37299;SDS011;23184;51.902;12.836;2023-05-07T11:43:23;4.85;;;3.50;;
37299;SDS011;23184;51.902;12.836;2023-05-07T11:45:49;4.57;;;3.28;;
37299;SDS011;23184;51.902;12.836;2023-05-07T11:48:15;5.63;;;3.35;;
37299;SDS011;23184;51.902;12.836;2023-05-07T11:50:49;4.88;;;3.40;;
37299;SDS011;23184;51.902;12.836;2023-05-07T11:53:17;5.82;;;3.55;;
37299;SDS011;23184;51.902;12.836;2023-05-07T11:55:43;4.43;;;3.55;;
37299;SDS011;23184;51.902;12.836;2023-05-07T11:58:10;5.45;;;3.67;;
37299;SDS011;23184;51.902;12.836;2023-05-07T12:00:37;4.82;;;3.42;;
37299;SDS011;23184;51.902;12.836;2023-05-07T12:03:03;4.40;;;3.15;;
37299;SDS011;23184;51.902;12.836;2023-05-07T12:05:30;5.05;;;3.42;;
37299;SDS011;23184;51.902;12.836;2023-05-07T12:07:58;7.00;;;3.55;;
37299;SDS011;23184;51.902;12.836;2023-05-07T12:10:24;5.15;;;3.25;;
37299;SDS011;23184;51.902;12.836;2023-05-07T12:12:49;6.20;;;3.15;;
37299;SDS011;23184;51.902;12.836;2023-05-07T12:15:16;3.83;;;3.05;;
37299;SDS011;23184;51.902;12.836;2023-05-07T12:17:42;5.60;;;3.05;;
37299;SDS011;23184;51.902;12.836;2023-05-07T12:20:08;5.85;;;2.75;;
37299;SDS011;23184;51.902;12.836;2023-05-07T12:22:34;5.50;;;3.30;;
37299;SDS011;23184;51.902;12.836;2023-05-07T12:25:00;4.05;;;3.08;;
37299;SDS011;23184;51.902;12.836;2023-05-07T12:27:25;4.80;;;3.63;;
37299;SDS011;23184;51.902;12.836;2023-05-07T12:29:51;4.50;;;3.60;;
37299;SDS011;23184;51.902;12.836;2023-05-07T12:32:17;5.78;;;3.63;;
37299;SDS011;23184;51.902;12.836;2023-05-07T12:34:44;5.78;;;3.15;;
37299;SDS011;23184;51.902;12.836;2023-05-07T12:37:10;4.05;;;3.10;;
37299;SDS011;23184;51.902;12.836;2023-05-07T12:39:37;7.05;;;3.40;;
37299;SDS011;23184;51.902;12.836;2023-05-07T12:42:03;4.97;;;3.40;;
37299;SDS011;23184;51.902;12.836;2023-05-07T12:44:29;4.43;;;3.30;;
37299;SDS011;23184;51.902;12.836;2023-05-07T12:46:56;7.75;;;2.78;;
37299;SDS011;23184;51.902;12.836;2023-05-07T12:49:22;4.90;;;2.92;;
37299;SDS011;23184;51.902;12.836;2023-05-07T12:51:48;3.90;;;3.20;;
37299;SDS011;23184;51.902;12.836;2023-05-07T12:54:30;4.60;;;2.97;;
37299;SDS011;23184;51.902;12.836;2023-05-07T12:57:06;4.35;;;3.00;;
37299;SDS011;23184;51.902;12.836;2023-05-07T12:59:35;4.43;;;3.00;;
37299;SDS011;23184;51.902;12.836;2023-05-07T13:02:02;4.20;;;2.90;;
37299;SDS011;23184;51.902;12.836;2023-05-07T13:04:28;7.25;;;3.22;;
37299;SDS011;23184;51.902;12.836;2023-05-07T13:06:54;3.95;;;2.72;;
37299;SDS011;23184;51.902;12.836;2023-05-07T13:09:20;5.45;;;3.35;;
37299;SDS011;23184;51.902;12.836;2023-05-07T13:11:45;3.40;;;2.75;;
37299;SDS011;23184;51.902;12.836;2023-05-07T13:14:11;5.90;;;2.40;;
37299;SDS011;23184;51.902;12.836;2023-05-07T13:16:37;5.45;;;2.55;;
37299;SDS011;23184;51.902;12.836;2023-05-07T13:19:02;3.08;;;2.58;;
37299;SDS011;23184;51.902;12.836;2023-05-07T13:21:28;4.35;;;2.58;;
37299;SDS011;23184;51.902;12.836;2023-05-07T13:23:53;3.22;;;2.45;;
37299;SDS011;23184;51.902;12.836;2023-05-07T13:26:18;3.55;;;2.42;;
37299;SDS011;23184;51.902;12.836;2023-05-07T13:28:45;2.60;;;2.10;;
37299;SDS011;23184;51.902;12.836;2023-05-07T13:31:11;2.58;;;2.33;;
37299;SDS011;23184;51.902;12.836;2023-05-07T13:33:36;3.38;;;2.55;;
37299;SDS011;23184;51.902;12.836;2023-05-07T13:36:02;4.43;;;2.72;;
37299;SDS011;23184;51.902;12.836;2023-05-07T13:38:30;3.25;;;2.50;;
37299;SDS011;23184;51.902;12.836;2023-05-07T13:40:55;3.85;;;2.50;;
37299;SDS011;23184;51.902;12.836;2023-05-07T13:43:21;5.05;;;2.75;;
37299;SDS011;23184;51.902;12.836;2023-05-07T13:45:47;5.90;;;2.92;;
37299;SDS011;23184;51.902;12.836;2023-05-07T13:48:12;3.97;;;2.55;;
37299;SDS011;23184;51.902;12.836;2023-05-07T13:50:37;3.88;;;3.00;;
37299;SDS011;23184;51.902;12.836;2023-05-07T13:53:03;4.63;;;3.13;;
37299;SDS011;23184;51.902;12.836;2023-05-07T13:55:29;5.80;;;3.30;;
37299;SDS011;23184;51.902;12.836;2023-05-07T13:57:55;5.20;;;3.08;;
37299;SDS011;23184;51.902;12.836;2023-05-07T14:00:22;5.95;;;3.10;;
37299;SDS011;23184;51.902;12.836;2023-05-07T14:02:48;5.63;;;2.90;;
37299;SDS011;23184;51.902;12.836;2023-05-07T14:05:13;3.20;;;2.63;;
37299;SDS011;23184;51.902;12.836;2023-05-07T14:07:39;4.38;;;2.58;;
37299;SDS011;23184;51.902;12.836;2023-05-07T14:10:05;3.45;;;2.80;;
37299;SDS011;23184;51.902;12.836;2023-05-07T14:12:31;3.65;;;2.60;;
37299;SDS011;23184;51.902;12.836;2023-05-07T14:14:57;4.88;;;2.58;;
37299;SDS011;23184;51.902;12.836;2023-05-07T14:17:23;3.70;;;3.00;;
37299;SDS011;23184;51.902;12.836;2023-05-07T14:19:51;5.32;;;2.80;;
37299;SDS011;23184;51.902;12.836;2023-05-07T14:22:18;3.78;;;2.97;;
37299;SDS011;23184;51.902;12.836;2023-05-07T14:24:47;3.90;;;2.83;;
37299;SDS011;23184;51.902;12.836;2023-05-07T14:27:14;6.10;;;2.90;;
37299;SDS011;23184;51.902;12.836;2023-05-07T14:29:40;6.97;;;2.90;;
37299;SDS011;23184;51.902;12.836;2023-05-07T14:32:05;3.38;;;2.70;;
37299;SDS011;23184;51.902;12.836;2023-05-07T14:34:31;3.50;;;2.90;;
37299;SDS011;23184;51.902;12.836;2023-05-07T14:36:57;4.00;;;2.40;;
37299;SDS011;23184;51.902;12.836;2023-05-07T14:39:23;3.72;;;2.30;;
37299;SDS011;23184;51.902;12.836;2023-05-07T14:41:48;3.17;;;2.17;;
37299;SDS011;23184;51.902;12.836;2023-05-07T14:44:14;5.32;;;2.60;;